Time;durP1;ratioP1;P1;durP2;ratioP2;P2;SDS_P1;SDS_P2;PMS_P1;PMS_P2;Temp;Humidity;BMP_temperature;BMP_pressure;BME280_temperature;BME280_humidity;BME280_pressure;Samples;Min_cycle;Max_cycle;Signal;HPM_P1;HPM_P2
2023/04/12 00:01:45;;;;;;;11.80;8.77;;;12.50;96.10;;;;;;4972626;28;20404;-72
2023/04/12 00:04:14;;;;;;;10.90;7.90;;;12.50;96.70;;;;;;4972472;28;20697;-74
2023/04/12 00:06:47;;;;;;;8.00;7.20;;;12.60;96.40;;;;;;4972193;28;20572;-72
2023/04/12 00:09:16;;;;;;;10.57;7.13;;;12.60;96.30;;;;;;4972581;28;20204;-65
2023/04/12 00:11:44;;;;;;;10.43;7.27;;;12.50;96.50;;;;;;4972129;28;20259;-72
2023/04/12 00:14:13;;;;;;;10.50;7.80;;;12.50;96.80;;;;;;4972355;28;20279;-76
2023/04/12 00:16:43;;;;;;;11.50;8.17;;;12.50;96.70;;;;;;4972444;28;20209;-67
2023/04/12 00:19:11;;;;;;;9.70;7.77;;;12.50;96.70;;;;;;4974406;28;20200;-69
2023/04/12 00:21:40;;;;;;;8.00;6.33;;;12.50;96.90;;;;;;4975789;28;20655;-71
2023/04/12 00:24:09;;;;;;;8.67;7.33;;;12.50;96.80;;;;;;4975784;28;20224;-72
2023/04/12 00:26:37;;;;;;;8.23;6.93;;;12.50;96.80;;;;;;4975706;28;20279;-66
2023/04/12 00:29:06;;;;;;;9.33;7.60;;;12.50;97.20;;;;;;4975576;28;20715;-77
2023/04/12 00:31:34;;;;;;;7.47;6.40;;;12.50;97.20;;;;;;4975591;28;20759;-74
2023/04/12 00:34:04;;;;;;;8.47;6.43;;;12.60;96.90;;;;;;4974221;28;20231;-72
2023/04/12 00:36:33;;;;;;;7.47;6.57;;;12.50;96.70;;;;;;4975828;28;20650;-67
2023/04/12 00:39:02;;;;;;;8.50;6.97;;;12.50;96.50;;;;;;4974175;28;20231;-67
2023/04/12 00:41:31;;;;;;;6.80;5.90;;;12.50;96.70;;;;;;4975555;28;20543;-73
2023/04/12 00:43:59;;;;;;;8.43;6.10;;;12.50;96.40;;;;;;4975524;28;20662;-71
2023/04/12 00:46:29;;;;;;;7.47;6.43;;;12.50;96.90;;;;;;4973655;28;20314;-79
2023/04/12 00:48:58;;;;;;;7.37;5.93;;;12.40;96.40;;;;;;4975351;28;20211;-67
2023/04/12 00:51:32;;;;;;;8.77;6.60;;;12.40;96.70;;;;;;4975042;28;20220;-70
2023/04/12 00:54:01;;;;;;;7.50;6.70;;;12.40;96.90;;;;;;4975242;28;20196;-65
2023/04/12 00:56:31;;;;;;;7.40;6.50;;;12.40;96.90;;;;;;4989929;28;20216;-66
2023/04/12 00:59:00;;;;;;;6.93;6.20;;;12.30;96.80;;;;;;4990037;28;20207;-66
2023/04/12 01:01:30;;;;;;;7.20;6.50;;;12.30;97.10;;;;;;4975057;28;20207;-69
2023/04/12 01:04:00;;;;;;;8.47;6.47;;;12.30;97.20;;;;;;4973853;28;20201;-66
2023/04/12 01:06:43;;;;;;;7.30;6.60;;;12.30;97.20;;;;;;4973473;28;20334;-76
2023/04/12 01:09:20;;;;;;;7.63;6.50;;;12.40;97.30;;;;;;4990034;28;20216;-75
2023/04/12 01:11:57;;;;;;;7.57;6.60;;;12.30;97.20;;;;;;4974855;28;20593;-74
2023/04/12 01:14:35;;;;;;;7.97;7.17;;;12.30;97.30;;;;;;4974946;28;20197;-73
2023/04/12 01:17:07;;;;;;;9.13;7.00;;;12.30;97.30;;;;;;4989958;28;20213;-66
2023/04/12 01:19:52;;;;;;;8.03;6.97;;;12.30;97.50;;;;;;4974626;28;20200;-74
2023/04/12 01:22:37;;;;;;;9.73;7.90;;;12.20;97.70;;;;;;4989582;28;20266;-73
2023/04/12 01:25:25;;;;;;;7.87;7.10;;;12.20;97.70;;;;;;4974605;28;20220;-68
2023/04/12 01:27:59;;;;;;;8.27;6.93;;;12.20;97.60;;;;;;4974584;28;20702;-66
2023/04/12 01:30:29;;;;;;;8.03;6.70;;;12.20;98.00;;;;;;4989339;28;20577;-73
2023/04/12 01:33:01;;;;;;;7.53;6.73;;;12.20;98.00;;;;;;4989038;28;20232;-72
2023/04/12 01:35:32;;;;;;;8.63;6.77;;;12.30;98.20;;;;;;4974503;28;20232;-71
2023/04/12 01:38:03;;;;;;;8.77;7.43;;;12.20;97.90;;;;;;4989275;28;20200;-73
2023/04/12 01:40:32;;;;;;;7.80;6.63;;;12.20;98.10;;;;;;4974335;28;20203;-75
2023/04/12 01:43:10;;;;;;;7.57;6.73;;;12.20;98.10;;;;;;4989085;28;20208;-66
2023/04/12 01:45:39;;;;;;;8.57;7.33;;;12.20;98.40;;;;;;4989111;28;20764;-78
2023/04/12 01:48:09;;;;;;;8.40;6.47;;;12.20;98.20;;;;;;4972414;28;20255;-68
2023/04/12 01:50:44;;;;;;;8.53;6.97;;;12.20;98.40;;;;;;4974211;28;20256;-65
2023/04/12 01:53:18;;;;;;;7.60;6.67;;;12.20;98.60;;;;;;4973987;28;20216;-76
2023/04/12 01:55:48;;;;;;;7.90;6.50;;;12.20;98.50;;;;;;4989056;28;20208;-71
2023/04/12 01:58:22;;;;;;;6.97;6.27;;;12.20;98.50;;;;;;4988774;28;20694;-66
2023/04/12 02:00:51;;;;;;;6.83;6.20;;;12.20;98.30;;;;;;4988805;28;20204;-66
2023/04/12 02:03:22;;;;;;;8.00;7.20;;;12.20;98.60;;;;;;4973905;28;20191;-65
2023/04/12 02:05:52;;;;;;;7.07;6.37;;;12.20;98.70;;;;;;4988475;28;20279;-67
2023/04/12 02:08:21;;;;;;;7.37;6.67;;;12.20;98.60;;;;;;4973941;28;20271;-76
2023/04/12 02:10:50;;;;;;;8.33;7.43;;;12.30;98.50;;;;;;4988605;28;20705;-65
2023/04/12 02:13:20;;;;;;;9.40;7.77;;;12.20;98.60;;;;;;4973658;28;20252;-77
2023/04/12 02:15:48;;;;;;;8.10;7.13;;;12.20;98.80;;;;;;4972419;28;20207;-68
2023/04/12 02:18:16;;;;;;;9.10;7.07;;;12.20;98.80;;;;;;4973628;28;20200;-67
2023/04/12 02:20:45;;;;;;;7.87;6.67;;;12.20;98.60;;;;;;4988521;28;20280;-67
2023/04/12 02:23:13;;;;;;;8.57;7.00;;;12.20;98.80;;;;;;4972246;28;20192;-74
2023/04/12 02:25:45;;;;;;;7.43;6.73;;;12.20;98.90;;;;;;4973538;28;20589;-66
2023/04/12 02:28:15;;;;;;;7.97;7.17;;;12.20;98.90;;;;;;4972155;28;20248;-67
2023/04/12 02:30:45;;;;;;;7.57;6.77;;;12.20;99.00;;;;;;4972239;28;20582;-71
2023/04/12 02:33:14;;;;;;;7.93;6.70;;;12.30;98.80;;;;;;4988219;28;20709;-66
2023/04/12 02:35:44;;;;;;;7.13;6.13;;;12.20;99.10;;;;;;4972175;28;20200;-65
2023/04/12 02:38:15;;;;;;;9.57;7.20;;;12.20;99.30;;;;;;4972084;28;20208;-71
2023/04/12 02:40:44;;;;;;;9.17;7.30;;;12.30;99.70;;;;;;4971509;28;20226;-74
2023/04/12 02:43:16;;;;;;;9.10;7.67;;;12.30;99.30;;;;;;4971839;28;20207;-67
2023/04/12 02:45:49;;;;;;;8.57;6.87;;;12.30;99.00;;;;;;4971990;28;20215;-66
2023/04/12 02:48:20;;;;;;;11.50;9.30;;;12.30;99.10;;;;;;4988156;28;20255;-66
2023/04/12 02:50:49;;;;;;;9.83;7.77;;;12.30;99.10;;;;;;4988157;28;20204;-73
2023/04/12 02:53:21;;;;;;;9.53;7.93;;;12.30;99.00;;;;;;4971759;28;20715;-67
2023/04/12 02:56:08;;;;;;;8.70;7.40;;;12.30;99.10;;;;;;4971859;28;20200;-67
2023/04/12 02:58:38;;;;;;;8.70;7.07;;;12.30;99.00;;;;;;4987794;28;20281;-67
2023/04/12 03:01:12;;;;;;;8.60;7.70;;;12.30;99.30;;;;;;4987949;28;20227;-72
2023/04/12 03:04:00;;;;;;;9.07;7.47;;;12.30;99.40;;;;;;4987834;28;20270;-66
2023/04/12 03:06:51;;;;;;;8.37;7.23;;;12.30;99.50;;;;;;4987537;28;20330;-72
2023/04/12 03:09:24;;;;;;;9.10;8.17;;;12.30;99.60;;;;;;4988031;28;20291;-69
2023/04/12 03:11:55;;;;;;;8.63;7.17;;;12.40;99.50;;;;;;4987862;28;20196;-66
2023/04/12 03:14:23;;;;;;;8.00;7.20;;;12.40;99.10;;;;;;4987695;28;20255;-66
2023/04/12 03:16:55;;;;;;;8.23;7.40;;;12.30;99.40;;;;;;4971275;28;20275;-68
2023/04/12 03:19:24;;;;;;;9.00;7.37;;;12.30;99.20;;;;;;4973078;28;20254;-67
2023/04/12 03:21:55;;;;;;;8.33;7.10;;;12.30;98.90;;;;;;4971397;28;20219;-69
2023/04/12 03:24:25;;;;;;;8.50;7.13;;;12.20;99.10;;;;;;4971742;28;20588;-67
2023/04/12 03:26:54;;;;;;;9.97;7.57;;;12.10;99.60;;;;;;4971560;28;20208;-82
2023/04/12 03:29:26;;;;;;;8.43;6.70;;;12.10;99.90;;;;;;4987536;28;20212;-66
2023/04/12 03:31:58;;;;;;;8.03;7.23;;;12.10;99.90;;;;;;4987824;28;20204;-76
2023/04/12 03:34:30;;;;;;;8.87;7.40;;;12.20;99.90;;;;;;4987493;28;20263;-67
2023/04/12 03:37:04;;;;;;;9.10;7.70;;;12.20;99.80;;;;;;4987442;28;20204;-65
2023/04/12 03:39:46;;;;;;;9.93;6.77;;;12.20;99.60;;;;;;4987607;28;20661;-67
2023/04/12 03:42:19;;;;;;;8.37;7.10;;;12.20;99.60;;;;;;4987317;28;20204;-68
2023/04/12 03:45:03;;;;;;;7.30;6.60;;;12.10;99.90;;;;;;4987390;28;20219;-72
2023/04/12 03:47:33;;;;;;;8.00;6.97;;;12.10;99.90;;;;;;4972565;28;20192;-67
2023/04/12 03:50:06;;;;;;;8.50;6.80;;;12.20;99.90;;;;;;4987339;28;20210;-70
2023/04/12 03:52:38;;;;;;;8.60;7.33;;;12.20;99.90;;;;;;4987284;28;20281;-71
2023/04/12 03:55:08;;;;;;;9.73;8.03;;;12.30;99.90;;;;;;4991013;28;20294;-69
2023/04/12 03:57:37;;;;;;;11.30;8.23;;;12.20;99.60;;;;;;4991066;28;20207;-68
2023/04/12 04:00:08;;;;;;;8.87;7.97;;;12.20;99.70;;;;;;4974681;28;20643;-73
2023/04/12 04:03:03;;;;;;;8.70;7.27;;;12.20;99.90;;;;;;4990902;28;20668;-70
2023/04/12 04:05:39;;;;;;;11.80;8.30;;;12.20;99.90;;;;;;4990681;28;20215;-73
2023/04/12 04:08:08;;;;;;;7.90;7.10;;;12.30;99.90;;;;;;4975736;28;20699;-73
2023/04/12 04:10:50;;;;;;;10.10;8.20;;;12.30;99.90;;;;;;4990814;28;20686;-70
2023/04/12 04:13:20;;;;;;;9.37;7.97;;;12.30;99.90;;;;;;4990657;28;20287;-66
2023/04/12 04:15:59;;;;;;;9.13;7.97;;;12.20;99.90;;;;;;4990931;28;20608;-69
2023/04/12 04:18:30;;;;;;;9.80;8.57;;;12.10;99.90;;;;;;4990647;28;20212;-68
2023/04/12 04:20:59;;;;;;;10.23;8.40;;;12.10;99.90;;;;;;4990645;28;20235;-71
2023/04/12 04:23:37;;;;;;;9.20;8.23;;;12.20;99.90;;;;;;4974533;28;20200;-69
2023/04/12 04:26:09;;;;;;;9.67;8.40;;;12.30;99.90;;;;;;4990578;28;20299;-70
2023/04/12 04:28:46;;;;;;;10.03;8.43;;;12.30;99.90;;;;;;4990429;28;20204;-73
2023/04/12 04:31:18;;;;;;;8.97;8.10;;;12.40;99.90;;;;;;4990698;28;20222;-70
2023/04/12 04:33:51;;;;;;;11.60;8.30;;;12.40;99.90;;;;;;4975647;28;20208;-77
2023/04/12 04:36:25;;;;;;;11.70;8.83;;;12.40;99.90;;;;;;4990914;28;20208;-68
2023/04/12 04:38:56;;;;;;;10.97;8.80;;;12.40;99.90;;;;;;4990445;28;20215;-76
2023/04/12 04:41:38;;;;;;;10.07;8.97;;;12.40;99.90;;;;;;4990183;28;20203;-77
2023/04/12 04:44:10;;;;;;;13.53;10.37;;;12.40;99.90;;;;;;4990258;28;20679;-82
2023/04/12 04:46:45;;;;;;;10.60;9.10;;;12.40;99.90;;;;;;4990181;28;20666;-72
2023/04/12 04:49:15;;;;;;;11.43;9.27;;;12.40;99.90;;;;;;4975256;28;20678;-68
2023/04/12 04:51:44;;;;;;;13.60;10.23;;;12.40;99.90;;;;;;4975276;28;20193;-66
2023/04/12 04:54:13;;;;;;;12.23;10.07;;;12.40;99.90;;;;;;4990041;28;20220;-68
2023/04/12 04:56:42;;;;;;;11.53;10.33;;;12.40;99.90;;;;;;4990155;28;20204;-68
2023/04/12 04:59:16;;;;;;;11.60;10.37;;;12.40;99.90;;;;;;4973594;28;20720;-67
2023/04/12 05:01:45;;;;;;;11.43;8.70;;;12.40;99.90;;;;;;4990189;28;20608;-67
2023/04/12 05:04:17;;;;;;;13.67;9.50;;;12.40;99.90;;;;;;4972600;28;20205;-67
2023/04/12 05:06:46;;;;;;;11.00;9.47;;;12.40;99.90;;;;;;4974716;28;20252;-66
2023/04/12 05:09:18;;;;;;;12.70;9.93;;;12.40;99.90;;;;;;4973637;28;20208;-71
2023/04/12 05:11:55;;;;;;;14.13;10.57;;;12.40;99.90;;;;;;4989816;28;20903;-79
2023/04/12 05:14:25;;;;;;;12.00;9.33;;;12.40;99.90;;;;;;4989894;28;20278;-80
2023/04/12 05:17:08;;;;;;;12.70;9.90;;;12.50;99.90;;;;;;4989669;28;20213;-75
2023/04/12 05:19:39;;;;;;;12.50;10.90;;;12.50;99.90;;;;;;4974755;28;20207;-71
2023/04/12 05:22:07;;;;;;;11.73;10.47;;;12.50;99.90;;;;;;4974605;28;20608;-66
2023/04/12 05:24:36;;;;;;;12.80;10.57;;;12.50;99.90;;;;;;4972870;28;20212;-67
2023/04/12 05:27:04;;;;;;;13.73;11.33;;;12.50;99.90;;;;;;4989553;28;20211;-66
2023/04/12 05:29:33;;;;;;;15.23;12.87;;;12.50;99.90;;;;;;4989302;28;20630;-76
2023/04/12 05:32:02;;;;;;;15.23;11.30;;;12.50;99.90;;;;;;4989319;28;20228;-67
2023/04/12 05:34:31;;;;;;;18.47;14.40;;;12.50;99.90;;;;;;4989338;28;20693;-71
2023/04/12 05:37:01;;;;;;;19.20;13.70;;;12.50;99.90;;;;;;4989143;28;20227;-76
2023/04/12 05:39:34;;;;;;;19.90;14.17;;;12.60;99.90;;;;;;4989272;28;20282;-67
2023/04/12 05:42:03;;;;;;;17.40;13.30;;;12.60;99.90;;;;;;4972956;28;20204;-66
2023/04/12 05:44:31;;;;;;;17.70;13.10;;;12.60;99.90;;;;;;4988908;28;20221;-74
2023/04/12 05:46:59;;;;;;;18.63;13.73;;;12.60;99.90;;;;;;4989047;28;20342;-69
2023/04/12 05:49:33;;;;;;;14.67;12.90;;;12.60;99.90;;;;;;4989022;28;20232;-79
2023/04/12 05:52:06;;;;;;;21.37;14.97;;;12.60;99.90;;;;;;4988934;28;20722;-79
2023/04/12 05:54:35;;;;;;;19.23;12.97;;;12.60;99.90;;;;;;4988805;28;20228;-80
2023/04/12 05:57:12;;;;;;;18.80;13.53;;;12.70;99.90;;;;;;4972971;28;20662;-80
2023/04/12 05:59:41;;;;;;;20.23;14.83;;;12.70;99.90;;;;;;4988883;28;20670;-76
2023/04/12 06:02:10;;;;;;;23.23;16.70;;;12.70;99.90;;;;;;4988771;28;20204;-79
2023/04/12 06:04:39;;;;;;;28.10;18.80;;;12.80;99.90;;;;;;4972007;28;20216;-74
2023/04/12 06:07:20;;;;;;;26.87;18.47;;;12.70;99.90;;;;;;4988767;28;20742;-77
2023/04/12 06:09:48;;;;;;;25.57;18.13;;;12.70;99.90;;;;;;4988672;28;20208;-67
2023/04/12 06:12:17;;;;;;;22.63;17.30;;;12.80;99.90;;;;;;4988628;28;20216;-78
2023/04/12 06:14:47;;;;;;;22.43;16.30;;;12.80;99.90;;;;;;4988187;28;20251;-65
2023/04/12 06:17:15;;;;;;;22.63;16.30;;;12.80;99.90;;;;;;4972813;28;20217;-70
2023/04/12 06:19:44;;;;;;;25.87;16.10;;;12.80;99.90;;;;;;4973625;28;20207;-67
2023/04/12 06:22:12;;;;;;;21.67;15.90;;;12.90;99.90;;;;;;4973610;28;20200;-78
2023/04/12 06:24:43;;;;;;;17.57;14.53;;;13.00;99.90;;;;;;4972223;28;20213;-79
2023/04/12 06:27:12;;;;;;;27.97;19.17;;;13.00;99.90;;;;;;4988326;28;20204;-67
2023/04/12 06:29:41;;;;;;;25.37;17.33;;;13.10;99.90;;;;;;4988021;28;20291;-66
2023/04/12 06:32:09;;;;;;;28.17;17.73;;;13.10;99.70;;;;;;4972059;28;20317;-76
2023/04/12 06:34:38;;;;;;;47.50;32.83;;;13.10;99.40;;;;;;4988152;28;20220;-79
2023/04/12 06:37:12;;;;;;;30.23;22.03;;;13.20;99.90;;;;;;4988118;28;20204;-73
2023/04/12 06:39:40;;;;;;;30.10;21.20;;;13.20;99.90;;;;;;4973445;28;20239;-74
2023/04/12 06:42:10;;;;;;;23.97;15.90;;;13.30;99.90;;;;;;4973346;28;20216;-72
2023/04/12 06:44:41;;;;;;;21.83;16.13;;;13.30;99.90;;;;;;4988277;28;20252;-76
2023/04/12 06:47:10;;;;;;;13.60;10.87;;;13.40;99.90;;;;;;4973099;28;20589;-68
2023/04/12 06:49:39;;;;;;;16.30;11.97;;;13.40;99.20;;;;;;4973154;28;20203;-77
2023/04/12 06:52:07;;;;;;;24.83;12.57;;;13.50;99.10;;;;;;4973160;28;20304;-77
2023/04/12 06:54:37;;;;;;;14.80;10.50;;;13.50;98.40;;;;;;4973095;28;20287;-66
2023/04/12 06:57:10;;;;;;;15.47;11.60;;;13.50;98.00;;;;;;4972951;28;20208;-68
2023/04/12 06:59:39;;;;;;;14.73;10.73;;;13.60;98.10;;;;;;4972980;28;20686;-72
2023/04/12 07:02:07;;;;;;;16.43;10.80;;;13.70;96.90;;;;;;4973291;28;20197;-67
2023/04/12 07:04:36;;;;;;;14.03;10.07;;;13.70;96.80;;;;;;4973097;28;20574;-69
2023/04/12 07:07:04;;;;;;;12.80;10.90;;;13.70;96.70;;;;;;4973024;28;20742;-73
2023/04/12 07:09:33;;;;;;;14.07;9.93;;;13.70;96.20;;;;;;4972907;28;20208;-71
2023/04/12 07:12:01;;;;;;;14.30;10.13;;;13.70;96.30;;;;;;4973159;28;20578;-75
2023/04/12 07:14:31;;;;;;;16.77;13.03;;;13.80;95.60;;;;;;4972777;28;20197;-67
2023/04/12 07:17:00;;;;;;;20.13;14.37;;;13.80;94.90;;;;;;4973221;28;20228;-73
2023/04/12 07:19:30;;;;;;;11.07;8.93;;;13.80;94.40;;;;;;4973147;28;20192;-77
2023/04/12 07:21:58;;;;;;;11.97;9.23;;;13.80;93.90;;;;;;4972833;28;20201;-77
2023/04/12 07:24:27;;;;;;;12.60;8.63;;;13.90;94.40;;;;;;4973003;28;20207;-71
2023/04/12 07:26:55;;;;;;;11.07;9.83;;;13.90;94.60;;;;;;4972967;28;20208;-69
2023/04/12 07:29:24;;;;;;;15.73;11.40;;;13.90;94.70;;;;;;4976703;28;20196;-72
2023/04/12 07:31:54;;;;;;;8.97;7.90;;;14.00;93.40;;;;;;4976541;28;20200;-72
2023/04/12 07:34:22;;;;;;;12.07;8.43;;;14.00;92.40;;;;;;4976750;28;20201;-67
2023/04/12 07:36:51;;;;;;;17.00;11.87;;;13.90;93.30;;;;;;4976656;28;20237;-73
2023/04/12 07:39:19;;;;;;;17.23;11.00;;;14.00;94.30;;;;;;4976486;28;20216;-72
2023/04/12 07:41:50;;;;;;;17.50;12.30;;;14.10;94.20;;;;;;4976514;28;20211;-78
2023/04/12 07:44:19;;;;;;;14.63;11.73;;;14.20;94.50;;;;;;4976419;28;20733;-77
2023/04/12 07:46:47;;;;;;;16.20;12.63;;;14.30;93.70;;;;;;4976313;28;20325;-74
2023/04/12 07:49:17;;;;;;;25.73;17.30;;;14.40;93.20;;;;;;4976399;28;20201;-71
2023/04/12 07:51:45;;;;;;;19.03;14.00;;;14.50;93.50;;;;;;4976210;28;20213;-70
2023/04/12 07:54:14;;;;;;;22.20;15.57;;;14.60;92.30;;;;;;4976461;28;20227;-72
2023/04/12 07:56:57;;;;;;;16.97;13.33;;;14.60;91.70;;;;;;4976182;28;20225;-66
2023/04/12 07:59:25;;;;;;;18.43;12.90;;;14.60;90.40;;;;;;4976147;28;20536;-71
2023/04/12 08:01:53;;;;;;;14.83;10.47;;;14.50;88.60;;;;;;4976083;28;20209;-71
2023/04/12 08:04:23;;;;;;;15.77;11.77;;;14.50;89.50;;;;;;4975962;28;20243;-67
2023/04/12 08:06:52;;;;;;;15.30;11.53;;;14.60;89.40;;;;;;4975783;28;20237;-70
2023/04/12 08:09:21;;;;;;;13.80;10.40;;;14.60;86.40;;;;;;4976043;28;20300;-67
2023/04/12 08:11:49;;;;;;;35.40;23.93;;;14.50;83.40;;;;;;4976050;28;20206;-73
2023/04/12 08:14:20;;;;;;;13.80;9.57;;;14.50;85.10;;;;;;4975832;28;20676;-65
2023/04/12 08:16:48;;;;;;;11.40;9.40;;;14.50;84.30;;;;;;4975508;28;20217;-66
2023/04/12 08:19:20;;;;;;;13.47;8.00;;;14.50;84.00;;;;;;4975661;28;20211;-66
2023/04/12 08:21:50;;;;;;;9.20;7.93;;;14.50;85.30;;;;;;4974322;28;20209;-69
2023/04/12 08:24:19;;;;;;;13.30;8.77;;;14.50;83.70;;;;;;4975655;28;20216;-73
2023/04/12 08:26:48;;;;;;;12.20;9.00;;;14.50;85.80;;;;;;4975503;28;20209;-75
2023/04/12 08:29:17;;;;;;;11.90;9.10;;;14.50;86.10;;;;;;4975471;28;20662;-66
2023/04/12 08:31:46;;;;;;;16.37;9.80;;;14.60;85.50;;;;;;4975484;28;20200;-67
2023/04/12 08:34:14;;;;;;;11.20;8.90;;;14.70;91.50;;;;;;4975577;28;20197;-74
2023/04/12 08:36:43;;;;;;;9.73;5.60;;;15.00;90.50;;;;;;4975491;28;20236;-68
2023/04/12 08:39:13;;;;;;;6.33;5.73;;;15.10;90.00;;;;;;4974562;28;20213;-74
2023/04/12 08:41:42;;;;;;;7.13;5.67;;;15.20;87.50;;;;;;4975405;28;20305;-73
2023/04/12 08:44:12;;;;;;;8.00;5.30;;;15.20;85.40;;;;;;4973194;28;20239;-66
2023/04/12 08:46:41;;;;;;;7.00;5.27;;;15.20;81.80;;;;;;4975323;28;20201;-74
2023/04/12 08:49:11;;;;;;;4.50;4.10;;;15.10;79.30;;;;;;4975299;28;20632;-66
2023/04/12 08:51:41;;;;;;;10.00;6.03;;;15.10;83.40;;;;;;4975314;28;20192;-75
2023/04/12 08:54:10;;;;;;;6.03;5.37;;;15.10;84.60;;;;;;4975148;28;20210;-66
2023/04/12 08:56:42;;;;;;;5.70;5.10;;;15.30;86.30;;;;;;4974965;28;20225;-66
2023/04/12 08:59:12;;;;;;;9.37;5.30;;;15.40;83.30;;;;;;4975191;28;20228;-68
2023/04/12 09:01:41;;;;;;;5.87;5.23;;;15.50;81.30;;;;;;4975040;28;20205;-66
2023/04/12 09:04:10;;;;;;;9.20;6.10;;;15.50;80.40;;;;;;4975011;28;20209;-67
2023/04/12 09:06:40;;;;;;;8.80;7.33;;;15.50;81.00;;;;;;4974633;28;20233;-66
2023/04/12 09:09:08;;;;;;;9.90;7.70;;;15.60;83.80;;;;;;4974923;28;20672;-75
2023/04/12 09:11:39;;;;;;;10.10;8.33;;;15.80;80.00;;;;;;4974736;28;20232;-75
2023/04/12 09:14:21;;;;;;;14.37;8.73;;;15.80;81.50;;;;;;4974912;28;20206;-73
2023/04/12 09:16:50;;;;;;;17.10;12.80;;;15.90;73.60;;;;;;4974366;28;20262;-72
2023/04/12 09:19:31;;;;;;;12.13;9.40;;;15.80;77.30;;;;;;4974920;28;20257;-67
2023/04/12 09:22:00;;;;;;;16.43;11.23;;;15.90;78.00;;;;;;4974582;28;20211;-67
2023/04/12 09:24:29;;;;;;;14.83;12.63;;;16.10;77.50;;;;;;4974779;28;20209;-69
2023/04/12 09:27:08;;;;;;;19.50;13.37;;;16.20;79.80;;;;;;4974613;28;20226;-65
2023/04/12 09:29:36;;;;;;;16.17;11.87;;;16.50;79.90;;;;;;4974462;28;20198;-71
2023/04/12 09:32:06;;;;;;;20.27;13.00;;;16.50;73.30;;;;;;4974284;28;20698;-66
2023/04/12 09:34:36;;;;;;;13.63;10.37;;;16.50;84.00;;;;;;4974382;28;20254;-72
2023/04/12 09:37:14;;;;;;;12.87;10.17;;;16.60;72.90;;;;;;4974390;28;20262;-66
2023/04/12 09:39:43;;;;;;;16.10;12.90;;;16.80;78.90;;;;;;4974452;28;20208;-68
2023/04/12 09:42:14;;;;;;;24.43;14.70;;;17.00;69.30;;;;;;4974256;28;20195;-66
2023/04/12 09:45:01;;;;;;;19.37;12.00;;;16.80;69.80;;;;;;4974281;28;20212;-74
2023/04/12 09:47:40;;;;;;;20.30;14.87;;;16.80;68.50;;;;;;4974273;28;20210;-72
2023/04/12 09:50:09;;;;;;;20.97;14.50;;;16.80;69.90;;;;;;4974130;28;20289;-72
2023/04/12 09:52:39;;;;;;;30.67;19.80;;;16.90;67.40;;;;;;4974127;28;20208;-69
2023/04/12 09:55:09;;;;;;;30.40;22.20;;;16.90;67.20;;;;;;4973975;28;20642;-73
2023/04/12 09:57:43;;;;;;;22.93;16.63;;;16.80;65.90;;;;;;4973858;28;20218;-75
2023/04/12 10:00:16;;;;;;;44.00;28.47;;;16.80;66.30;;;;;;4973914;28;20753;-67
2023/04/12 10:02:47;;;;;;;78.67;46.13;;;16.80;67.50;;;;;;4973634;28;20206;-75
2023/04/12 10:05:20;;;;;;;25.37;17.63;;;16.90;68.00;;;;;;4973967;28;20209;-72
2023/04/12 10:07:49;;;;;;;21.27;15.53;;;17.00;67.60;;;;;;4973563;28;20251;-67
2023/04/12 10:10:19;;;;;;;34.87;22.57;;;17.20;70.90;;;;;;4973678;28;20202;-73
2023/04/12 10:12:50;;;;;;;39.57;23.70;;;17.60;77.60;;;;;;4973607;28;20197;-71
2023/04/12 10:15:20;;;;;;;62.30;37.20;;;17.70;66.20;;;;;;4973724;28;20202;-71
2023/04/12 10:17:56;;;;;;;29.57;20.87;;;17.60;65.50;;;;;;4973713;28;20236;-66
2023/04/12 10:20:25;;;;;;;21.80;16.50;;;17.50;63.60;;;;;;4973682;28;20212;-68
2023/04/12 10:22:58;;;;;;;23.20;17.83;;;17.50;62.90;;;;;;4973625;28;20208;-66
2023/04/12 10:25:30;;;;;;;20.70;15.67;;;17.40;62.30;;;;;;4988321;28;20642;-67
2023/04/12 10:28:14;;;;;;;19.97;15.30;;;17.30;62.40;;;;;;4973501;28;20207;-67
2023/04/12 10:30:42;;;;;;;17.23;14.27;;;17.30;63.90;;;;;;4973356;28;20709;-65
2023/04/12 10:33:13;;;;;;;15.07;11.90;;;17.60;75.80;;;;;;4973269;28;20661;-67
2023/04/12 10:35:53;;;;;;;24.50;17.17;;;18.20;73.00;;;;;;4973524;28;20565;-67
2023/04/12 10:38:25;;;;;;;14.60;10.47;;;18.60;63.30;;;;;;4973319;28;20330;-75
2023/04/12 10:41:13;;;;;;;11.03;9.77;;;18.30;58.00;;;;;;4973515;28;20207;-73
2023/04/12 10:43:44;;;;;;;11.40;10.20;;;17.40;59.70;;;;;;4973310;28;20205;-66
2023/04/12 10:46:48;;;;;;;14.20;10.67;;;17.50;66.50;;;;;;4972965;28;20247;-68
2023/04/12 10:49:17;;;;;;;16.23;10.60;;;17.70;61.00;;;;;;4988218;28;20211;-71
2023/04/12 10:52:11;;;;;;;16.23;10.37;;;17.90;62.50;;;;;;4987656;28;20220;-66
2023/04/12 10:54:40;;;;;;;11.53;9.70;;;18.10;64.00;;;;;;4973184;28;20215;-73
2023/04/12 10:57:42;;;;;;;10.83;9.47;;;18.70;72.80;;;;;;4971755;28;20214;-66
2023/04/12 11:00:13;;;;;;;16.20;11.00;;;19.10;67.50;;;;;;4973042;28;20666;-77
2023/04/12 11:03:04;;;;;;;12.13;9.83;;;19.80;62.80;;;;;;4987456;28;20580;-73
2023/04/12 11:05:58;;;;;;;11.83;9.57;;;20.30;59.40;;;;;;4972930;28;20773;-78
2023/04/12 11:08:54;;;;;;;12.73;9.53;;;20.40;55.30;;;;;;4972889;28;20733;-74
2023/04/12 11:11:26;;;;;;;10.17;7.30;;;20.30;57.20;;;;;;4972802;28;20243;-74
2023/04/12 11:13:58;;;;;;;9.80;7.97;;;19.60;53.10;;;;;;4972755;28;20208;-74
2023/04/12 11:16:27;;;;;;;10.13;8.00;;;19.20;54.30;;;;;;4972883;28;20201;-73
2023/04/12 11:18:56;;;;;;;11.73;8.67;;;19.10;55.00;;;;;;4972764;28;20241;-76
2023/04/12 11:21:26;;;;;;;10.63;7.37;;;19.00;54.40;;;;;;4972813;28;20201;-72
2023/04/12 11:23:55;;;;;;;8.53;7.07;;;19.10;55.00;;;;;;4972571;28;20263;-65
2023/04/12 11:26:24;;;;;;;9.00;7.10;;;19.20;55.00;;;;;;4972597;28;20242;-69
2023/04/12 11:28:54;;;;;;;8.83;7.37;;;19.30;54.50;;;;;;4972720;28;20287;-69
2023/04/12 11:31:23;;;;;;;8.40;7.00;;;19.40;55.70;;;;;;4972535;28;20243;-67
2023/04/12 11:33:53;;;;;;;10.07;7.07;;;19.50;55.00;;;;;;4972672;28;20192;-75
2023/04/12 11:36:22;;;;;;;8.23;6.50;;;19.60;53.80;;;;;;4972786;28;20207;-69
2023/04/12 11:38:51;;;;;;;7.70;6.90;;;19.40;53.60;;;;;;4972547;28;20311;-67
2023/04/12 11:41:19;;;;;;;7.00;5.93;;;19.40;53.90;;;;;;4972765;28;20622;-68
2023/04/12 11:43:48;;;;;;;7.90;6.30;;;19.30;53.80;;;;;;4972708;28;20207;-66
2023/04/12 11:46:17;;;;;;;9.83;7.53;;;19.30;53.60;;;;;;4972511;28;20192;-76
2023/04/12 11:48:46;;;;;;;9.00;7.63;;;19.30;53.70;;;;;;4972637;28;20202;-73
2023/04/12 11:51:23;;;;;;;9.23;7.33;;;19.10;53.40;;;;;;4972507;28;20235;-66
2023/04/12 11:53:56;;;;;;;9.93;7.20;;;19.00;53.70;;;;;;4972789;28;20227;-75
2023/04/12 11:56:26;;;;;;;16.97;9.97;;;18.90;53.60;;;;;;4972585;28;20209;-67
2023/04/12 11:58:54;;;;;;;11.83;8.00;;;18.60;54.80;;;;;;4972318;28;20232;-72
2023/04/12 12:01:23;;;;;;;21.47;16.17;;;18.40;54.90;;;;;;4972274;28;20209;-69
2023/04/12 12:03:52;;;;;;;9.80;7.60;;;18.40;55.20;;;;;;4972300;28;20197;-68
2023/04/12 12:06:23;;;;;;;12.13;9.60;;;18.40;55.10;;;;;;4972233;28;20724;-67
2023/04/12 12:08:52;;;;;;;12.90;9.37;;;18.30;55.10;;;;;;4972273;28;20231;-66
2023/04/12 12:11:22;;;;;;;13.37;11.17;;;18.20;55.30;;;;;;4972312;28;20193;-67
2023/04/12 12:13:51;;;;;;;14.80;10.73;;;18.10;55.80;;;;;;4972270;28;20300;-67
2023/04/12 12:16:25;;;;;;;38.67;23.13;;;18.10;56.20;;;;;;4975628;28;20690;-66
2023/04/12 12:18:54;;;;;;;36.33;22.30;;;18.20;56.50;;;;;;4975645;28;20267;-75
2023/04/12 12:21:25;;;;;;;20.30;15.90;;;18.50;60.10;;;;;;4975758;28;20223;-70
2023/04/12 12:23:55;;;;;;;18.13;13.83;;;19.00;59.70;;;;;;4975553;28;20578;-74
2023/04/12 12:26:25;;;;;;;9.93;7.20;;;19.30;58.30;;;;;;4975581;28;20207;-67
2023/04/12 12:28:55;;;;;;;11.67;7.20;;;19.40;56.30;;;;;;4975510;28;20611;-67
2023/04/12 12:31:25;;;;;;;10.27;7.83;;;19.10;55.60;;;;;;4975475;28;20671;-67
2023/04/12 12:33:56;;;;;;;10.73;7.17;;;19.00;55.30;;;;;;4975445;28;20299;-67
2023/04/12 12:36:34;;;;;;;8.17;6.70;;;19.10;56.20;;;;;;4975405;28;20211;-68
2023/04/12 12:39:06;;;;;;;10.57;7.47;;;19.40;58.80;;;;;;4975321;28;20703;-66
2023/04/12 12:41:35;;;;;;;8.53;6.70;;;19.80;57.00;;;;;;4975312;28;20219;-73
2023/04/12 12:44:04;;;;;;;8.50;5.97;;;20.00;56.80;;;;;;4975301;28;20241;-74
2023/04/12 12:46:33;;;;;;;6.90;5.70;;;20.00;53.30;;;;;;4975259;28;20205;-67
2023/04/12 12:49:04;;;;;;;10.27;6.60;;;19.40;53.50;;;;;;4975241;28;20285;-67
2023/04/12 12:51:34;;;;;;;9.03;7.20;;;19.20;54.20;;;;;;4975151;28;20189;-68
2023/04/12 12:54:03;;;;;;;8.77;7.53;;;19.10;53.60;;;;;;4975042;28;20224;-67
2023/04/12 12:56:31;;;;;;;11.97;9.00;;;19.10;54.60;;;;;;4975099;28;20254;-66
2023/04/12 12:59:00;;;;;;;11.67;7.13;;;19.10;54.40;;;;;;4975107;28;20223;-70
2023/04/12 13:01:28;;;;;;;8.43;6.20;;;18.90;54.40;;;;;;4974861;28;20784;-68